Terminal Aerodrome Forecast
Issued by NWS Wilmington, OH

Current Version | Previous Version | Graphics & Text | Print | Product List | Glossary On
Versions: 1 2 3 4 5 6 7 8 9 10 11 12 13 14 15 16 17 18 19 20 21 22 23
000
FTUS41 KILN 181000 AAC
TAFDAY
TAF AMD
KDAY 181032Z 1811/1906 06004KT 4SM BR SCT050
     FM181200 05004KT 3SM BR OVC025
     FM181800 03006KT P6SM VCSH BKN040
     FM182100 VRB04KT P6SM BKN100
     FM190400 16004KT P6SM BKN250=

USA.gov is the U.S. government's official web portal to all federal, state and local government web resources and services.